createdAt,value
2019-03-30T00:01:43.579Z,15.73
2019-03-30T00:04:13.518Z,15.35
2019-03-30T00:06:43.739Z,15.98
2019-03-30T00:09:13.579Z,19.05
2019-03-30T00:11:43.443Z,13.50
2019-03-30T00:14:13.672Z,21.70
2019-03-30T00:16:43.477Z,19.00
2019-03-30T00:19:13.401Z,15.70
2019-03-30T00:21:43.326Z,19.13
2019-03-30T00:24:13.202Z,20.40
2019-03-30T00:26:43.652Z,16.95
2019-03-30T00:29:13.899Z,19.00
2019-03-30T00:31:43.765Z,15.97
2019-03-30T00:34:13.904Z,15.60
2019-03-30T00:36:43.822Z,15.80
2019-03-30T00:39:13.591Z,15.35
2019-03-30T00:41:43.681Z,17.52
2019-03-30T00:44:13.524Z,17.93
2019-03-30T00:46:43.356Z,16.27
2019-03-30T00:49:13.181Z,15.43
2019-03-30T00:51:43.539Z,18.23
2019-03-30T00:54:13.656Z,21.47
2019-03-30T00:56:43.572Z,18.20
2019-03-30T00:59:13.425Z,18.12
2019-03-30T01:01:43.283Z,22.07
2019-03-30T01:04:14.154Z,20.40
2019-03-30T01:06:44.017Z,18.50
2019-03-30T01:09:13.910Z,18.02
2019-03-30T01:11:43.719Z,16.23
2019-03-30T01:14:16.651Z,21.65
2019-03-30T01:16:47.248Z,15.95
2019-03-30T01:19:18.723Z,17.50
2019-03-30T01:21:49.029Z,19.15
2019-03-30T01:24:18.824Z,17.30
2019-03-30T01:26:48.711Z,16.42
2019-03-30T01:29:18.583Z,17.02
2019-03-30T01:31:49.486Z,18.75
2019-03-30T01:34:19.608Z,14.20
2019-03-30T01:36:49.411Z,19.02
2019-03-30T01:39:19.227Z,14.70
2019-03-30T01:41:49.020Z,16.93
2019-03-30T01:44:19.193Z,14.07
2019-03-30T01:46:49.040Z,13.37
2019-03-30T01:49:19.226Z,14.53
2019-03-30T01:51:49.120Z,14.15
2019-03-30T01:54:18.939Z,13.55
2019-03-30T01:56:49.361Z,16.73
2019-03-30T01:59:19.218Z,22.87
2019-03-30T02:01:49.050Z,15.48
2019-03-30T02:04:19.520Z,18.48
2019-03-30T02:06:49.383Z,17.77
2019-03-30T02:09:19.507Z,19.60
2019-03-30T02:11:50.415Z,18.13
2019-03-30T02:14:20.215Z,21.07
2019-03-30T02:16:50.089Z,16.30
2019-03-30T02:19:19.930Z,16.55
2019-03-30T02:21:49.854Z,15.65
2019-03-30T02:24:20.691Z,16.55
2019-03-30T02:29:20.071Z,18.23
2019-03-30T02:31:49.846Z,17.52
2019-03-30T02:34:20.740Z,18.90
2019-03-30T02:36:51.527Z,16.48
2019-03-30T02:39:21.401Z,19.55
2019-03-30T02:41:51.281Z,32.75
2019-03-30T02:44:21.130Z,18.45
2019-03-30T02:46:51.272Z,15.72
2019-03-30T02:49:21.407Z,16.30
2019-03-30T02:51:51.236Z,15.83
2019-03-30T02:54:21.092Z,16.15
2019-03-30T02:56:50.953Z,14.30
2019-03-30T02:59:20.800Z,14.07
2019-03-30T03:01:50.686Z,18.12
2019-03-30T03:04:21.809Z,16.77
2019-03-30T03:06:51.637Z,17.73
2019-03-30T03:09:21.717Z,19.48
2019-03-30T03:11:51.589Z,15.88
2019-03-30T03:14:21.668Z,15.72
2019-03-30T03:16:51.493Z,17.42
2019-03-30T03:19:21.577Z,17.62
2019-03-30T03:21:51.559Z,19.70
2019-03-30T03:24:21.386Z,19.80
2019-03-30T03:26:51.261Z,15.20
2019-03-30T03:29:21.120Z,13.48
2019-03-30T03:31:51.348Z,14.40
2019-03-30T03:34:21.257Z,15.30
2019-03-30T03:36:51.162Z,13.73
2019-03-30T03:39:21.368Z,15.98
2019-03-30T03:41:51.192Z,15.10
2019-03-30T03:44:22.348Z,16.70
2019-03-30T03:46:52.217Z,18.70
2019-03-30T03:49:22.277Z,16.45
2019-03-30T03:51:52.413Z,16.50
2019-03-30T03:54:22.311Z,18.77
2019-03-30T03:56:52.225Z,18.65
2019-03-30T03:59:22.372Z,16.27
2019-03-30T04:01:52.876Z,15.53
2019-03-30T04:04:23.311Z,17.57
2019-03-30T04:06:53.216Z,17.00
2019-03-30T04:09:23.085Z,17.42
2019-03-30T04:11:52.902Z,18.25
2019-03-30T04:14:22.700Z,17.57
2019-03-30T04:16:54.606Z,20.23
2019-03-30T04:19:24.745Z,15.85
2019-03-30T04:21:54.620Z,16.17
2019-03-30T04:24:24.444Z,15.90
2019-03-30T04:26:54.333Z,16.23
2019-03-30T04:29:24.180Z,19.50
2019-03-30T04:31:54.039Z,17.37
2019-03-30T04:34:24.123Z,13.53
2019-03-30T04:36:55.224Z,15.77
2019-03-30T04:39:25.065Z,16.05
2019-03-30T04:41:54.945Z,20.23
2019-03-30T04:44:25.903Z,19.65
2019-03-30T04:46:55.664Z,19.95
2019-03-30T04:49:25.522Z,16.60
2019-03-30T04:51:57.838Z,16.45
2019-03-30T04:54:27.265Z,17.62
2019-03-30T04:56:57.080Z,16.12
2019-03-30T04:59:27.246Z,16.73
2019-03-30T05:01:57.469Z,20.20
2019-03-30T05:04:28.271Z,16.47
2019-03-30T05:06:58.093Z,19.65
2019-03-30T05:09:28.199Z,17.05
2019-03-30T05:11:58.007Z,18.40
2019-03-30T05:14:28.175Z,14.45
2019-03-30T05:16:58.047Z,16.05
2019-03-30T05:19:27.882Z,17.10
2019-03-30T05:22:11.359Z,17.35
2019-03-30T05:24:27.977Z,18.23
2019-03-30T05:26:58.070Z,17.00
2019-03-30T05:29:27.945Z,16.35
2019-03-30T05:31:57.837Z,14.63
2019-03-30T05:34:29.716Z,20.53
2019-03-30T05:36:59.587Z,17.83
2019-03-30T05:39:29.660Z,15.88
2019-03-30T05:41:59.541Z,21.10
2019-03-30T05:44:29.629Z,17.57
2019-03-30T05:47:01.892Z,16.87
2019-03-30T05:49:32.072Z,17.85
2019-03-30T05:52:01.986Z,17.80
2019-03-30T05:54:31.823Z,19.97
2019-03-30T05:57:01.940Z,18.77
2019-03-30T05:59:33.755Z,20.07
2019-03-30T06:02:03.635Z,18.92
2019-03-30T06:04:33.823Z,15.60
2019-03-30T06:07:03.711Z,17.12
2019-03-30T06:09:33.503Z,23.22
2019-03-30T06:12:03.684Z,18.95
2019-03-30T06:14:34.732Z,21.17
2019-03-30T06:17:04.633Z,19.42
2019-03-30T06:19:34.517Z,20.35
2019-03-30T06:22:04.768Z,24.75
2019-03-30T06:24:35.673Z,30.80
2019-03-30T06:27:05.574Z,23.60
2019-03-30T06:29:35.409Z,22.00
2019-03-30T06:32:05.623Z,19.55
2019-03-30T06:34:35.741Z,21.68
2019-03-30T06:37:06.002Z,24.40
2019-03-30T06:39:37.153Z,21.10
2019-03-30T06:42:05.924Z,18.77
2019-03-30T06:44:35.775Z,20.85
2019-03-30T06:47:05.617Z,26.00
2019-03-30T06:49:35.454Z,21.68
2019-03-30T06:52:07.293Z,21.37
2019-03-30T06:54:37.237Z,20.27
2019-03-30T06:57:07.105Z,20.80
2019-03-30T06:59:36.914Z,21.75
2019-03-30T07:02:06.729Z,21.15
2019-03-30T07:04:36.808Z,21.57
2019-03-30T07:07:06.644Z,21.15
2019-03-30T07:09:36.522Z,25.43
2019-03-30T07:12:07.682Z,20.27
2019-03-30T07:14:38.599Z,19.52
2019-03-30T07:17:08.809Z,20.02
2019-03-30T07:19:38.701Z,20.43
2019-03-30T07:22:08.640Z,25.50
2019-03-30T07:24:38.517Z,24.50
2019-03-30T07:27:12.846Z,27.65
2019-03-30T07:29:42.764Z,20.15
2019-03-30T07:32:13.930Z,21.23
2019-03-30T07:34:43.858Z,22.13
2019-03-30T07:37:13.735Z,20.32
2019-03-30T07:39:43.567Z,20.60
2019-03-30T07:42:13.698Z,18.03
2019-03-30T07:44:43.509Z,19.80
2019-03-30T07:47:13.924Z,24.13
2019-03-30T07:49:46.091Z,20.80
2019-03-30T07:52:16.085Z,22.32
2019-03-30T07:54:46.333Z,19.52
2019-03-30T07:57:17.605Z,22.80
2019-03-30T07:59:58.372Z,20.12
2019-03-30T08:02:28.896Z,23.57
2019-03-30T08:05:02.999Z,21.20
2019-03-30T08:07:33.206Z,24.85
2019-03-30T08:10:03.134Z,19.25
2019-03-30T08:12:38.914Z,19.77
2019-03-30T08:15:08.848Z,25.27
2019-03-30T08:17:41.798Z,20.00
2019-03-30T08:20:11.708Z,21.00
2019-03-30T08:22:41.579Z,20.43
2019-03-30T08:25:11.823Z,23.05
2019-03-30T08:27:41.685Z,22.13
2019-03-30T08:30:11.545Z,22.20
2019-03-30T08:32:41.678Z,21.83
2019-03-30T08:35:11.601Z,22.73
2019-03-30T08:37:41.441Z,21.20
2019-03-30T08:40:11.553Z,20.37
2019-03-30T08:42:41.370Z,20.67
2019-03-30T08:45:11.260Z,22.57
2019-03-30T08:47:41.068Z,23.87
2019-03-30T08:50:10.989Z,20.77
2019-03-30T08:52:40.832Z,25.17
2019-03-30T08:55:10.678Z,23.37
2019-03-30T08:57:41.088Z,21.40
2019-03-30T09:00:10.889Z,25.80
2019-03-30T09:02:40.691Z,22.50
2019-03-30T09:05:10.887Z,21.37
2019-03-30T09:07:40.720Z,21.73
2019-03-30T09:10:10.564Z,21.57
2019-03-30T09:12:40.714Z,20.97
2019-03-30T09:15:10.592Z,24.83
2019-03-30T09:17:40.735Z,24.23
2019-03-30T09:22:40.220Z,22.67
2019-03-30T09:25:10.046Z,26.23
2019-03-30T09:27:39.924Z,22.43
2019-03-30T09:30:09.914Z,21.50
2019-03-30T09:32:39.763Z,21.83
2019-03-30T09:35:09.906Z,21.23
2019-03-30T09:37:39.947Z,21.37
2019-03-30T09:40:10.271Z,22.17
2019-03-30T09:42:40.442Z,22.95
2019-03-30T09:45:10.539Z,24.33
2019-03-30T09:47:40.613Z,23.87
2019-03-30T09:50:10.540Z,23.37
2019-03-30T09:52:41.482Z,26.93
2019-03-30T09:55:11.393Z,24.65
2019-03-30T09:57:41.257Z,22.83
2019-03-30T10:00:11.118Z,24.53
2019-03-30T10:02:40.980Z,22.23
2019-03-30T10:05:10.926Z,23.20
2019-03-30T10:07:41.745Z,22.90
2019-03-30T10:10:11.633Z,23.92
2019-03-30T10:12:41.459Z,22.57
2019-03-30T10:15:11.335Z,25.00
2019-03-30T10:17:41.199Z,30.37
2019-03-30T10:20:11.074Z,24.67
2019-03-30T10:22:42.335Z,27.25
2019-03-30T10:25:10.775Z,24.07
2019-03-30T10:27:40.896Z,29.73
2019-03-30T10:30:12.792Z,27.10
2019-03-30T10:32:42.613Z,24.00
2019-03-30T10:35:12.480Z,24.47
2019-03-30T10:37:43.624Z,28.33
2019-03-30T10:40:13.772Z,29.00
2019-03-30T10:42:43.618Z,28.43
2019-03-30T10:45:13.880Z,24.37
2019-03-30T10:47:45.700Z,28.93
2019-03-30T10:50:15.835Z,26.00
2019-03-30T10:52:45.718Z,29.00
2019-03-30T10:55:15.955Z,25.83
2019-03-30T10:57:46.096Z,24.37
2019-03-30T11:00:25.557Z,22.37
2019-03-30T11:02:55.424Z,26.30
2019-03-30T11:05:25.275Z,27.45
2019-03-30T11:08:01.621Z,24.32
2019-03-30T11:10:31.735Z,25.30
2019-03-30T11:13:01.961Z,21.37
2019-03-30T11:15:34.098Z,23.13
2019-03-30T11:18:01.769Z,25.45
2019-03-30T11:20:31.622Z,23.77
2019-03-30T11:23:02.747Z,27.55
2019-03-30T11:25:34.236Z,26.37
2019-03-30T11:28:14.808Z,25.55
2019-03-30T11:30:44.677Z,21.07
2019-03-30T11:33:16.773Z,26.60
2019-03-30T11:35:46.650Z,24.10
2019-03-30T11:38:18.837Z,22.47
2019-03-30T11:40:49.059Z,23.12
2019-03-30T11:43:18.934Z,25.67
2019-03-30T11:45:48.769Z,21.87
2019-03-30T11:48:19.683Z,25.13
2019-03-30T11:50:49.518Z,25.77
2019-03-30T11:53:19.296Z,24.63
2019-03-30T11:55:49.385Z,24.55
2019-03-30T11:58:19.225Z,23.55
2019-03-30T12:00:50.135Z,24.27
2019-03-30T12:03:20.250Z,21.82
2019-03-30T12:05:51.142Z,20.97
2019-03-30T12:08:21.013Z,21.35
2019-03-30T12:10:51.623Z,23.73
2019-03-30T12:13:21.762Z,21.75
2019-03-30T12:15:51.641Z,21.93
2019-03-30T12:18:22.047Z,24.05
2019-03-30T12:20:51.861Z,21.50
2019-03-30T12:23:22.679Z,21.77
2019-03-30T12:25:52.502Z,26.02
2019-03-30T12:28:22.739Z,19.95
2019-03-30T12:30:56.441Z,20.37
2019-03-30T12:33:26.570Z,27.17
2019-03-30T12:35:57.177Z,21.07
2019-03-30T12:38:27.078Z,20.93
2019-03-30T12:40:57.405Z,21.25
2019-03-30T12:43:27.475Z,20.50
2019-03-30T12:45:58.386Z,21.77
2019-03-30T12:48:28.683Z,17.82
2019-03-30T12:50:58.823Z,20.08
2019-03-30T12:53:28.711Z,19.53
2019-03-30T12:55:58.497Z,21.17
2019-03-30T12:58:28.339Z,20.33
2019-03-30T13:01:00.122Z,22.58
2019-03-30T13:03:30.343Z,19.57
2019-03-30T13:06:00.257Z,21.73
2019-03-30T13:08:30.552Z,20.60
2019-03-30T13:11:00.499Z,20.77
2019-03-30T13:13:30.292Z,22.50
2019-03-30T13:16:00.456Z,23.35
2019-03-30T13:18:31.255Z,24.45
2019-03-30T13:21:02.086Z,19.10
2019-03-30T13:23:31.987Z,19.67
2019-03-30T13:26:03.931Z,18.80
2019-03-30T13:28:31.736Z,17.40
2019-03-30T13:31:01.679Z,16.80
2019-03-30T13:33:31.585Z,16.90
2019-03-30T13:36:01.525Z,15.40
2019-03-30T13:38:32.410Z,16.52
2019-03-30T13:41:02.561Z,21.80
2019-03-30T13:43:33.062Z,16.80
2019-03-30T13:46:03.223Z,21.15
2019-03-30T13:48:34.097Z,19.80
2019-03-30T13:53:32.478Z,15.83
2019-03-30T13:56:02.326Z,18.50
2019-03-30T13:58:32.157Z,17.80
2019-03-30T14:01:02.042Z,19.10
2019-03-30T14:03:32.253Z,16.47
2019-03-30T14:06:02.076Z,15.63
2019-03-30T14:08:32.218Z,13.73
2019-03-30T14:11:02.133Z,14.67
2019-03-30T14:13:33.266Z,16.37
2019-03-30T14:16:03.210Z,17.23
2019-03-30T14:18:33.082Z,15.30
2019-03-30T14:21:03.434Z,17.97
2019-03-30T14:23:33.634Z,18.03
2019-03-30T14:26:03.564Z,17.43
2019-03-30T14:28:33.731Z,18.00
2019-03-30T14:31:03.602Z,21.47
2019-03-30T14:33:33.477Z,16.87
2019-03-30T14:36:03.325Z,17.17
2019-03-30T14:38:33.528Z,16.70
2019-03-30T14:41:04.142Z,15.58
2019-03-30T14:43:33.711Z,15.90
2019-03-30T14:46:03.581Z,18.10
2019-03-30T14:48:33.815Z,21.33
2019-03-30T14:51:03.730Z,20.07
2019-03-30T14:53:35.167Z,16.97
2019-03-30T14:56:05.426Z,18.73
2019-03-30T14:58:35.293Z,20.23
2019-03-30T15:01:05.119Z,16.87
2019-03-30T15:03:35.018Z,16.87
2019-03-30T15:06:07.155Z,16.42
2019-03-30T15:11:05.745Z,17.45
2019-03-30T15:13:37.646Z,15.30
2019-03-30T15:16:08.754Z,17.13
2019-03-30T15:18:38.626Z,17.57
2019-03-30T15:21:09.535Z,19.23
2019-03-30T15:23:46.149Z,17.87
2019-03-30T15:26:16.005Z,18.17
2019-03-30T15:28:46.856Z,16.63
2019-03-30T15:31:16.750Z,21.62
2019-03-30T15:33:46.569Z,17.53
2019-03-30T15:36:16.419Z,17.75
2019-03-30T15:38:48.598Z,19.50
2019-03-30T15:41:19.656Z,16.42
2019-03-30T15:43:51.953Z,15.63
2019-03-30T15:46:19.231Z,19.87
2019-03-30T15:48:49.345Z,17.62
2019-03-30T15:51:19.397Z,16.40
2019-03-30T15:53:49.505Z,17.90
2019-03-30T15:56:19.440Z,20.52
2019-03-30T15:58:49.219Z,17.80
2019-03-30T16:01:23.837Z,17.05
2019-03-30T16:03:53.682Z,18.77
2019-03-30T16:06:25.470Z,21.42
2019-03-30T16:08:55.325Z,16.75
2019-03-30T16:11:26.222Z,21.35
2019-03-30T16:16:26.671Z,18.37
2019-03-30T16:18:56.849Z,18.55
2019-03-30T16:21:26.919Z,21.37
2019-03-30T16:23:56.899Z,20.75
2019-03-30T16:26:40.994Z,21.82
2019-03-30T16:28:57.135Z,19.57
2019-03-30T16:31:26.965Z,19.27
2019-03-30T16:33:57.054Z,24.60
2019-03-30T16:36:29.065Z,19.15
2019-03-30T16:38:59.531Z,22.95
2019-03-30T16:41:31.691Z,19.90
2019-03-30T16:44:02.864Z,17.85
2019-03-30T16:46:32.705Z,22.00
2019-03-30T16:49:02.794Z,23.32
2019-03-30T16:51:35.329Z,20.33
2019-03-30T16:54:05.253Z,17.67
2019-03-30T16:56:37.067Z,17.77
2019-03-30T16:59:07.549Z,19.92
2019-03-30T17:01:37.446Z,19.67
2019-03-30T17:04:07.354Z,23.30
2019-03-30T17:06:38.213Z,20.20
2019-03-30T17:09:08.216Z,21.30
2019-03-30T17:11:38.105Z,18.75
2019-03-30T17:14:07.938Z,17.35
2019-03-30T17:16:39.526Z,19.52
2019-03-30T17:19:10.347Z,19.75
2019-03-30T17:21:41.245Z,22.35
2019-03-30T17:24:11.532Z,25.52
2019-03-30T17:26:41.402Z,24.65
2019-03-30T17:29:11.626Z,24.02
2019-03-30T17:31:41.630Z,23.12
2019-03-30T17:34:11.761Z,26.73
2019-03-30T17:36:41.584Z,25.37
2019-03-30T17:39:11.844Z,25.43
2019-03-30T17:41:42.604Z,25.03
2019-03-30T17:44:12.661Z,21.57
2019-03-30T17:46:42.921Z,27.07
2019-03-30T17:49:13.782Z,27.27
2019-03-30T17:51:43.629Z,24.47
2019-03-30T17:54:13.505Z,28.67
2019-03-30T17:56:43.368Z,25.25
2019-03-30T17:59:13.245Z,25.85
2019-03-30T18:01:43.402Z,34.48
2019-03-30T18:04:13.994Z,54.58
2019-03-30T18:06:43.785Z,69.63
2019-03-30T18:09:13.609Z,67.05
2019-03-30T18:11:43.431Z,46.00
2019-03-30T18:14:13.334Z,37.45
2019-03-30T18:16:43.169Z,36.68
2019-03-30T18:19:15.045Z,36.50
2019-03-30T18:21:45.469Z,34.23
2019-03-30T18:24:15.506Z,59.27
2019-03-30T18:26:45.380Z,62.83
2019-03-30T18:29:17.300Z,48.17
2019-03-30T18:31:48.181Z,49.42
2019-03-30T18:34:18.088Z,52.95
2019-03-30T18:36:49.907Z,41.73
2019-03-30T18:39:20.015Z,38.02
2019-03-30T18:41:49.875Z,40.58
2019-03-30T18:44:20.129Z,41.00
2019-03-30T18:46:49.991Z,49.70
2019-03-30T18:49:19.814Z,42.03
2019-03-30T18:51:49.640Z,40.33
2019-03-30T18:54:19.555Z,34.30
2019-03-30T18:56:49.468Z,34.00
2019-03-30T18:59:19.380Z,33.28
2019-03-30T19:01:49.161Z,32.67
2019-03-30T19:04:19.047Z,35.13
2019-03-30T19:06:49.417Z,29.27
2019-03-30T19:09:19.341Z,40.35
2019-03-30T19:11:49.167Z,36.83
2019-03-30T19:14:19.074Z,36.58
2019-03-30T19:16:49.225Z,31.10
2019-03-30T19:19:19.436Z,33.00
2019-03-30T19:21:50.257Z,33.28
2019-03-30T19:24:20.500Z,61.33
2019-03-30T19:26:50.881Z,117.28
2019-03-30T19:29:20.741Z,83.13
2019-03-30T19:31:51.642Z,87.40
2019-03-30T19:34:22.477Z,60.73
2019-03-30T19:36:53.322Z,44.27
2019-03-30T19:39:23.480Z,39.90
2019-03-30T19:41:54.371Z,36.38
2019-03-30T19:44:24.631Z,38.30
2019-03-30T19:46:55.126Z,37.28
2019-03-30T19:49:25.060Z,36.73
2019-03-30T19:51:55.210Z,40.57
2019-03-30T19:54:25.380Z,41.93
2019-03-30T19:56:55.173Z,48.08
2019-03-30T19:59:24.983Z,49.25
2019-03-30T20:01:54.831Z,40.67
2019-03-30T20:04:24.688Z,46.60
2019-03-30T20:06:54.536Z,42.70
2019-03-30T20:09:25.381Z,34.92
2019-03-30T20:11:56.231Z,31.55
2019-03-30T20:16:57.073Z,36.85
2019-03-30T20:19:26.950Z,36.45
2019-03-30T20:21:57.364Z,34.92
2019-03-30T20:24:26.700Z,40.85
2019-03-30T20:26:56.859Z,32.20
2019-03-30T20:29:28.078Z,33.23
2019-03-30T20:32:01.384Z,34.50
2019-03-30T20:34:31.938Z,32.73
2019-03-30T20:37:02.075Z,39.17
2019-03-30T20:39:37.363Z,41.80
2019-03-30T20:42:07.169Z,40.23
2019-03-30T20:44:37.079Z,50.17
2019-03-30T20:47:06.896Z,44.05
2019-03-30T20:49:37.108Z,43.35
2019-03-30T20:52:06.928Z,54.90
2019-03-30T20:54:36.829Z,54.08
2019-03-30T20:57:06.972Z,49.18
2019-03-30T20:59:40.363Z,41.93
2019-03-30T21:02:10.085Z,47.13
2019-03-30T21:04:40.290Z,47.60
2019-03-30T21:07:10.228Z,52.43
2019-03-30T21:09:40.111Z,38.67
2019-03-30T21:12:10.285Z,43.10
2019-03-30T21:14:40.120Z,37.28
2019-03-30T21:17:09.978Z,39.60
2019-03-30T21:19:39.902Z,35.43
2019-03-30T21:22:09.824Z,37.73
2019-03-30T21:24:39.716Z,39.13
2019-03-30T21:27:11.576Z,42.40
2019-03-30T21:29:54.045Z,38.15
2019-03-30T21:32:11.622Z,31.48
2019-03-30T21:34:45.471Z,31.60
2019-03-30T21:37:15.317Z,34.78
2019-03-30T21:39:45.225Z,37.88
2019-03-30T21:42:15.428Z,30.57
2019-03-30T21:44:45.802Z,30.87
2019-03-30T21:47:15.817Z,35.55
2019-03-30T21:49:45.570Z,37.53
2019-03-30T21:52:15.678Z,35.50
2019-03-30T21:54:45.510Z,28.98
2019-03-30T21:57:15.358Z,30.97
2019-03-30T21:59:45.284Z,35.40
2019-03-30T22:02:15.175Z,34.50
2019-03-30T22:04:45.067Z,37.53
2019-03-30T22:07:17.489Z,31.15
2019-03-30T22:09:47.489Z,35.07
2019-03-30T22:12:17.950Z,35.83
2019-03-30T22:14:47.818Z,34.00
2019-03-30T22:17:17.705Z,31.40
2019-03-30T22:19:47.831Z,27.98
2019-03-30T22:22:17.961Z,28.77
2019-03-30T22:24:47.907Z,35.52
2019-03-30T22:27:19.528Z,29.30
2019-03-30T22:29:50.407Z,28.33
2019-03-30T22:34:49.357Z,27.25
2019-03-30T22:37:19.266Z,32.88
2019-03-30T22:39:49.112Z,26.77
2019-03-30T22:42:20.035Z,34.55
2019-03-30T22:44:52.160Z,31.27
2019-03-30T22:47:22.111Z,29.27
2019-03-30T22:49:54.005Z,31.57
2019-03-30T22:52:24.901Z,30.43
2019-03-30T22:55:00.269Z,27.25
2019-03-30T22:57:31.934Z,31.40
2019-03-30T23:00:02.134Z,27.02
2019-03-30T23:02:32.969Z,34.70
2019-03-30T23:05:03.952Z,30.60
2019-03-30T23:07:33.821Z,40.28
2019-03-30T23:10:03.963Z,36.88
2019-03-30T23:12:34.189Z,31.03
2019-03-30T23:15:04.066Z,32.37
2019-03-30T23:17:33.886Z,30.62
2019-03-30T23:20:03.998Z,30.02
2019-03-30T23:22:34.153Z,31.23
2019-03-30T23:25:04.065Z,32.13
2019-03-30T23:27:34.991Z,30.25
2019-03-30T23:30:08.383Z,31.70
2019-03-30T23:32:38.291Z,37.42
2019-03-30T23:35:08.532Z,34.63
2019-03-30T23:37:38.408Z,30.68
2019-03-30T23:40:09.516Z,36.93
2019-03-30T23:42:39.381Z,32.25
2019-03-30T23:45:09.189Z,31.75
2019-03-30T23:47:39.317Z,30.12
2019-03-30T23:50:09.393Z,30.13
2019-03-30T23:52:39.241Z,37.63
2019-03-30T23:55:09.089Z,32.95
2019-03-30T23:57:39.204Z,31.02
